sensor_id;sensor_type;location;lat;lon;timestamp;temperature;humidity
10263;DHT22;5177;50.068;8.156;2022-10-16T00:00:30;15.30;99.90
10263;DHT22;5177;50.068;8.156;2022-10-16T00:02:56;15.40;99.90
10263;DHT22;5177;50.068;8.156;2022-10-16T00:05:21;15.40;99.90
10263;DHT22;5177;50.068;8.156;2022-10-16T00:07:47;15.40;99.90
10263;DHT22;5177;50.068;8.156;2022-10-16T00:10:12;15.40;99.90
10263;DHT22;5177;50.068;8.156;2022-10-16T00:12:38;15.40;99.90
10263;DHT22;5177;50.068;8.156;2022-10-16T00:15:03;15.40;99.90
10263;DHT22;5177;50.068;8.156;2022-10-16T00:17:29;15.40;99.90
10263;DHT22;5177;50.068;8.156;2022-10-16T00:19:55;15.40;99.90
10263;DHT22;5177;50.068;8.156;2022-10-16T00:22:20;15.40;99.90
10263;DHT22;5177;50.068;8.156;2022-10-16T00:24:46;15.30;99.90
10263;DHT22;5177;50.068;8.156;2022-10-16T00:27:11;15.30;99.90
10263;DHT22;5177;50.068;8.156;2022-10-16T00:29:37;15.30;99.90
10263;DHT22;5177;50.068;8.156;2022-10-16T00:32:02;15.30;99.90
10263;DHT22;5177;50.068;8.156;2022-10-16T00:34:28;15.30;99.90
10263;DHT22;5177;50.068;8.156;2022-10-16T00:36:53;15.20;99.90
10263;DHT22;5177;50.068;8.156;2022-10-16T00:39:19;15.30;99.90
10263;DHT22;5177;50.068;8.156;2022-10-16T00:41:44;15.30;99.90
10263;DHT22;5177;50.068;8.156;2022-10-16T00:46:54;15.30;99.90
10263;DHT22;5177;50.068;8.156;2022-10-16T00:49:23;15.30;99.90
10263;DHT22;5177;50.068;8.156;2022-10-16T00:51:52;15.30;99.90
10263;DHT22;5177;50.068;8.156;2022-10-16T00:54:29;15.40;99.90
10263;DHT22;5177;50.068;8.156;2022-10-16T00:56:55;15.30;99.90
10263;DHT22;5177;50.068;8.156;2022-10-16T00:59:29;15.30;99.90
10263;DHT22;5177;50.068;8.156;2022-10-16T01:01:55;15.30;99.90
10263;DHT22;5177;50.068;8.156;2022-10-16T01:04:21;15.30;99.90
10263;DHT22;5177;50.068;8.156;2022-10-16T01:09:23;15.20;99.90
10263;DHT22;5177;50.068;8.156;2022-10-16T01:14:39;15.20;99.90
10263;DHT22;5177;50.068;8.156;2022-10-16T01:17:10;15.20;99.90
10263;DHT22;5177;50.068;8.156;2022-10-16T01:22:21;15.10;99.90
10263;DHT22;5177;50.068;8.156;2022-10-16T01:24:49;15.10;99.90
10263;DHT22;5177;50.068;8.156;2022-10-16T01:29:53;15.10;99.90
10263;DHT22;5177;50.068;8.156;2022-10-16T01:35:05;15.00;99.90
10263;DHT22;5177;50.068;8.156;2022-10-16T01:37:38;15.00;99.90
10263;DHT22;5177;50.068;8.156;2022-10-16T01:40:07;15.10;99.90
10263;DHT22;5177;50.068;8.156;2022-10-16T01:45:37;15.00;99.90
10263;DHT22;5177;50.068;8.156;2022-10-16T01:48:03;15.00;99.90
10263;DHT22;5177;50.068;8.156;2022-10-16T01:50:34;15.00;99.90
10263;DHT22;5177;50.068;8.156;2022-10-16T01:53:00;15.00;99.90
10263;DHT22;5177;50.068;8.156;2022-10-16T01:55:28;15.00;99.90
10263;DHT22;5177;50.068;8.156;2022-10-16T01:57:55;15.00;99.90
10263;DHT22;5177;50.068;8.156;2022-10-16T02:00:21;15.00;99.90
10263;DHT22;5177;50.068;8.156;2022-10-16T02:02:48;15.00;99.90
10263;DHT22;5177;50.068;8.156;2022-10-16T02:05:34;15.00;99.90
10263;DHT22;5177;50.068;8.156;2022-10-16T02:08:02;15.00;99.90
10263;DHT22;5177;50.068;8.156;2022-10-16T02:10:28;14.90;99.90
10263;DHT22;5177;50.068;8.156;2022-10-16T02:12:57;15.00;99.90
10263;DHT22;5177;50.068;8.156;2022-10-16T02:15:24;15.00;99.90
10263;DHT22;5177;50.068;8.156;2022-10-16T02:17:50;15.00;99.90
10263;DHT22;5177;50.068;8.156;2022-10-16T02:20:15;15.00;99.90
10263;DHT22;5177;50.068;8.156;2022-10-16T02:22:45;15.00;99.90
10263;DHT22;5177;50.068;8.156;2022-10-16T02:30:26;15.00;99.90
10263;DHT22;5177;50.068;8.156;2022-10-16T02:32:52;15.00;99.90
10263;DHT22;5177;50.068;8.156;2022-10-16T02:35:19;15.10;99.90
10263;DHT22;5177;50.068;8.156;2022-10-16T02:37:46;15.00;99.90
10263;DHT22;5177;50.068;8.156;2022-10-16T02:40:12;15.00;99.90
10263;DHT22;5177;50.068;8.156;2022-10-16T02:42:39;14.90;99.90
10263;DHT22;5177;50.068;8.156;2022-10-16T02:45:05;15.10;99.90
10263;DHT22;5177;50.068;8.156;2022-10-16T02:47:31;15.00;99.90
10263;DHT22;5177;50.068;8.156;2022-10-16T02:49:56;15.00;99.90
10263;DHT22;5177;50.068;8.156;2022-10-16T02:52:22;15.00;99.90
10263;DHT22;5177;50.068;8.156;2022-10-16T02:54:47;15.00;99.90
10263;DHT22;5177;50.068;8.156;2022-10-16T02:57:13;14.90;99.90
10263;DHT22;5177;50.068;8.156;2022-10-16T02:59:38;14.90;99.90
10263;DHT22;5177;50.068;8.156;2022-10-16T03:02:04;15.00;99.90
10263;DHT22;5177;50.068;8.156;2022-10-16T03:04:29;14.90;99.90
10263;DHT22;5177;50.068;8.156;2022-10-16T03:06:55;15.00;99.90
10263;DHT22;5177;50.068;8.156;2022-10-16T03:09:20;15.00;99.90
10263;DHT22;5177;50.068;8.156;2022-10-16T03:11:46;15.00;99.90
10263;DHT22;5177;50.068;8.156;2022-10-16T03:14:11;14.90;99.90
10263;DHT22;5177;50.068;8.156;2022-10-16T03:16:37;15.00;99.90
10263;DHT22;5177;50.068;8.156;2022-10-16T03:19:03;15.00;99.90
10263;DHT22;5177;50.068;8.156;2022-10-16T03:21:28;15.00;99.90
10263;DHT22;5177;50.068;8.156;2022-10-16T03:23:53;15.00;99.90
10263;DHT22;5177;50.068;8.156;2022-10-16T03:26:19;15.00;99.90
10263;DHT22;5177;50.068;8.156;2022-10-16T03:28:44;15.00;99.90
10263;DHT22;5177;50.068;8.156;2022-10-16T03:31:10;15.00;99.90
10263;DHT22;5177;50.068;8.156;2022-10-16T03:33:35;15.00;99.90
10263;DHT22;5177;50.068;8.156;2022-10-16T03:36:01;15.00;99.90
10263;DHT22;5177;50.068;8.156;2022-10-16T03:38:27;15.00;99.90
10263;DHT22;5177;50.068;8.156;2022-10-16T03:40:52;15.10;99.90
10263;DHT22;5177;50.068;8.156;2022-10-16T03:43:17;15.10;99.90
10263;DHT22;5177;50.068;8.156;2022-10-16T03:45:43;15.10;99.90
10263;DHT22;5177;50.068;8.156;2022-10-16T03:48:08;15.10;99.90
10263;DHT22;5177;50.068;8.156;2022-10-16T03:50:34;15.10;99.90
10263;DHT22;5177;50.068;8.156;2022-10-16T03:53:01;15.10;99.90
10263;DHT22;5177;50.068;8.156;2022-10-16T03:55:26;15.10;99.90
10263;DHT22;5177;50.068;8.156;2022-10-16T03:57:52;15.10;99.90
10263;DHT22;5177;50.068;8.156;2022-10-16T04:00:17;15.20;99.90
10263;DHT22;5177;50.068;8.156;2022-10-16T04:02:43;15.10;99.90
10263;DHT22;5177;50.068;8.156;2022-10-16T04:05:08;15.20;99.90
10263;DHT22;5177;50.068;8.156;2022-10-16T04:07:34;15.20;99.90
10263;DHT22;5177;50.068;8.156;2022-10-16T04:09:59;15.20;99.90
10263;DHT22;5177;50.068;8.156;2022-10-16T04:12:25;15.10;99.90
10263;DHT22;5177;50.068;8.156;2022-10-16T04:14:51;15.20;99.90
10263;DHT22;5177;50.068;8.156;2022-10-16T04:17:16;15.20;99.90
10263;DHT22;5177;50.068;8.156;2022-10-16T04:19:42;15.20;99.90
10263;DHT22;5177;50.068;8.156;2022-10-16T04:22:07;15.20;99.90
10263;DHT22;5177;50.068;8.156;2022-10-16T04:24:33;15.20;99.90
10263;DHT22;5177;50.068;8.156;2022-10-16T04:26:58;15.30;99.90
10263;DHT22;5177;50.068;8.156;2022-10-16T04:29:24;15.30;99.90
10263;DHT22;5177;50.068;8.156;2022-10-16T04:31:49;15.30;99.90
10263;DHT22;5177;50.068;8.156;2022-10-16T04:34:15;15.30;99.90
10263;DHT22;5177;50.068;8.156;2022-10-16T04:36:41;15.20;99.90
10263;DHT22;5177;50.068;8.156;2022-10-16T04:39:06;15.30;99.90
10263;DHT22;5177;50.068;8.156;2022-10-16T04:41:32;15.30;99.90
10263;DHT22;5177;50.068;8.156;2022-10-16T04:43:57;15.30;99.90
10263;DHT22;5177;50.068;8.156;2022-10-16T04:46:23;15.30;99.90
10263;DHT22;5177;50.068;8.156;2022-10-16T04:48:48;15.30;99.90
10263;DHT22;5177;50.068;8.156;2022-10-16T04:51:16;15.30;99.90
10263;DHT22;5177;50.068;8.156;2022-10-16T04:53:43;15.30;99.90
10263;DHT22;5177;50.068;8.156;2022-10-16T04:56:09;15.30;99.90
10263;DHT22;5177;50.068;8.156;2022-10-16T04:58:34;15.30;99.90
10263;DHT22;5177;50.068;8.156;2022-10-16T05:01:00;15.30;99.90
10263;DHT22;5177;50.068;8.156;2022-10-16T05:03:25;15.30;99.90
10263;DHT22;5177;50.068;8.156;2022-10-16T05:05:51;15.30;99.90
10263;DHT22;5177;50.068;8.156;2022-10-16T05:08:19;15.30;99.90
10263;DHT22;5177;50.068;8.156;2022-10-16T05:10:45;15.30;99.90
10263;DHT22;5177;50.068;8.156;2022-10-16T05:13:11;15.30;99.90
10263;DHT22;5177;50.068;8.156;2022-10-16T05:15:36;15.30;99.90
10263;DHT22;5177;50.068;8.156;2022-10-16T05:18:02;15.40;99.90
10263;DHT22;5177;50.068;8.156;2022-10-16T05:20:28;15.40;99.90
10263;DHT22;5177;50.068;8.156;2022-10-16T05:22:53;15.30;99.90
10263;DHT22;5177;50.068;8.156;2022-10-16T05:25:18;15.30;99.90
10263;DHT22;5177;50.068;8.156;2022-10-16T05:27:47;15.30;99.90
10263;DHT22;5177;50.068;8.156;2022-10-16T05:30:14;15.30;99.90
10263;DHT22;5177;50.068;8.156;2022-10-16T05:32:39;15.30;99.90
10263;DHT22;5177;50.068;8.156;2022-10-16T05:35:05;15.30;99.90
10263;DHT22;5177;50.068;8.156;2022-10-16T05:37:31;15.20;99.90
10263;DHT22;5177;50.068;8.156;2022-10-16T05:39:56;15.20;99.90
10263;DHT22;5177;50.068;8.156;2022-10-16T05:42:22;15.20;99.90
10263;DHT22;5177;50.068;8.156;2022-10-16T05:44:47;15.20;99.90
10263;DHT22;5177;50.068;8.156;2022-10-16T05:47:13;15.20;99.90
10263;DHT22;5177;50.068;8.156;2022-10-16T05:49:39;15.20;99.90
10263;DHT22;5177;50.068;8.156;2022-10-16T05:52:05;15.20;99.90
10263;DHT22;5177;50.068;8.156;2022-10-16T05:54:30;15.20;99.90
10263;DHT22;5177;50.068;8.156;2022-10-16T05:56:56;15.20;99.90
10263;DHT22;5177;50.068;8.156;2022-10-16T05:59:21;15.20;99.90
10263;DHT22;5177;50.068;8.156;2022-10-16T06:01:47;15.20;99.90
10263;DHT22;5177;50.068;8.156;2022-10-16T06:04:15;15.20;99.90
10263;DHT22;5177;50.068;8.156;2022-10-16T06:06:40;15.20;99.90
10263;DHT22;5177;50.068;8.156;2022-10-16T06:09:06;15.20;99.90
10263;DHT22;5177;50.068;8.156;2022-10-16T06:11:32;15.20;99.90
10263;DHT22;5177;50.068;8.156;2022-10-16T06:13:58;15.20;99.90
10263;DHT22;5177;50.068;8.156;2022-10-16T06:16:27;15.10;99.90
10263;DHT22;5177;50.068;8.156;2022-10-16T06:18:53;15.20;99.90
10263;DHT22;5177;50.068;8.156;2022-10-16T06:21:20;15.20;99.90
10263;DHT22;5177;50.068;8.156;2022-10-16T06:23:47;15.20;99.90
10263;DHT22;5177;50.068;8.156;2022-10-16T06:26:13;15.20;99.90
10263;DHT22;5177;50.068;8.156;2022-10-16T06:28:39;15.20;99.90
10263;DHT22;5177;50.068;8.156;2022-10-16T06:31:05;15.20;99.90
10263;DHT22;5177;50.068;8.156;2022-10-16T06:33:32;15.20;99.90
10263;DHT22;5177;50.068;8.156;2022-10-16T06:36:04;15.20;99.90
10263;DHT22;5177;50.068;8.156;2022-10-16T06:38:31;15.20;99.90
10263;DHT22;5177;50.068;8.156;2022-10-16T06:40:58;15.20;99.90
10263;DHT22;5177;50.068;8.156;2022-10-16T06:43:24;15.20;99.90
10263;DHT22;5177;50.068;8.156;2022-10-16T06:45:53;15.20;99.90
10263;DHT22;5177;50.068;8.156;2022-10-16T06:48:19;15.20;99.90
10263;DHT22;5177;50.068;8.156;2022-10-16T06:50:54;15.20;99.90
10263;DHT22;5177;50.068;8.156;2022-10-16T06:53:20;15.10;99.90
10263;DHT22;5177;50.068;8.156;2022-10-16T06:55:45;15.20;99.90
10263;DHT22;5177;50.068;8.156;2022-10-16T06:58:11;15.20;99.90
10263;DHT22;5177;50.068;8.156;2022-10-16T07:00:36;15.20;99.90
10263;DHT22;5177;50.068;8.156;2022-10-16T07:03:02;15.30;99.90
10263;DHT22;5177;50.068;8.156;2022-10-16T07:05:28;15.20;99.90
10263;DHT22;5177;50.068;8.156;2022-10-16T07:07:53;15.20;99.90
10263;DHT22;5177;50.068;8.156;2022-10-16T07:10:19;15.30;99.90
10263;DHT22;5177;50.068;8.156;2022-10-16T07:12:45;15.30;99.90
10263;DHT22;5177;50.068;8.156;2022-10-16T07:15:10;15.40;99.90
10263;DHT22;5177;50.068;8.156;2022-10-16T07:17:37;15.50;99.90
10263;DHT22;5177;50.068;8.156;2022-10-16T07:20:03;15.40;99.90
10263;DHT22;5177;50.068;8.156;2022-10-16T07:22:29;15.40;99.90
10263;DHT22;5177;50.068;8.156;2022-10-16T07:24:54;15.40;99.90
10263;DHT22;5177;50.068;8.156;2022-10-16T07:27:20;15.40;99.90
10263;DHT22;5177;50.068;8.156;2022-10-16T07:29:49;15.40;99.90
10263;DHT22;5177;50.068;8.156;2022-10-16T07:32:14;15.50;99.90
10263;DHT22;5177;50.068;8.156;2022-10-16T07:34:40;15.50;99.90
10263;DHT22;5177;50.068;8.156;2022-10-16T07:37:06;15.50;99.90
10263;DHT22;5177;50.068;8.156;2022-10-16T07:39:32;15.60;99.90
10263;DHT22;5177;50.068;8.156;2022-10-16T07:41:57;15.60;99.90
10263;DHT22;5177;50.068;8.156;2022-10-16T07:44:23;15.60;99.90
10263;DHT22;5177;50.068;8.156;2022-10-16T07:46:49;15.60;99.90
10263;DHT22;5177;50.068;8.156;2022-10-16T07:49:15;15.70;99.90
10263;DHT22;5177;50.068;8.156;2022-10-16T07:51:41;15.70;99.90
10263;DHT22;5177;50.068;8.156;2022-10-16T07:54:07;15.80;99.90
10263;DHT22;5177;50.068;8.156;2022-10-16T07:56:34;15.80;99.90
10263;DHT22;5177;50.068;8.156;2022-10-16T07:58:59;15.80;99.90
10263;DHT22;5177;50.068;8.156;2022-10-16T08:01:25;15.80;99.90
10263;DHT22;5177;50.068;8.156;2022-10-16T08:03:51;15.80;99.90
10263;DHT22;5177;50.068;8.156;2022-10-16T08:06:17;15.80;99.90
10263;DHT22;5177;50.068;8.156;2022-10-16T08:08:43;15.80;99.90
10263;DHT22;5177;50.068;8.156;2022-10-16T08:11:10;15.80;99.90
10263;DHT22;5177;50.068;8.156;2022-10-16T08:13:35;15.90;99.90
10263;DHT22;5177;50.068;8.156;2022-10-16T08:16:01;15.80;99.90
10263;DHT22;5177;50.068;8.156;2022-10-16T08:18:28;15.90;99.90
10263;DHT22;5177;50.068;8.156;2022-10-16T08:20:55;15.90;99.90
10263;DHT22;5177;50.068;8.156;2022-10-16T08:23:21;16.00;99.90
10263;DHT22;5177;50.068;8.156;2022-10-16T08:25:46;16.00;99.90
10263;DHT22;5177;50.068;8.156;2022-10-16T08:28:12;16.00;99.90
10263;DHT22;5177;50.068;8.156;2022-10-16T08:30:37;16.00;99.90
10263;DHT22;5177;50.068;8.156;2022-10-16T08:33:03;16.10;99.90
10263;DHT22;5177;50.068;8.156;2022-10-16T08:35:29;16.10;99.90
10263;DHT22;5177;50.068;8.156;2022-10-16T08:37:54;16.30;99.90
10263;DHT22;5177;50.068;8.156;2022-10-16T08:40:24;16.30;99.90
10263;DHT22;5177;50.068;8.156;2022-10-16T08:46:00;16.50;99.90
10263;DHT22;5177;50.068;8.156;2022-10-16T08:48:22;16.50;99.90
10263;DHT22;5177;50.068;8.156;2022-10-16T08:50:51;16.50;99.90
10263;DHT22;5177;50.068;8.156;2022-10-16T08:53:18;16.50;99.90
10263;DHT22;5177;50.068;8.156;2022-10-16T08:55:50;16.40;99.90
10263;DHT22;5177;50.068;8.156;2022-10-16T08:58:18;16.50;99.90
10263;DHT22;5177;50.068;8.156;2022-10-16T09:00:46;16.40;99.90
10263;DHT22;5177;50.068;8.156;2022-10-16T09:08:34;16.30;99.90
10263;DHT22;5177;50.068;8.156;2022-10-16T09:11:11;16.30;99.90
10263;DHT22;5177;50.068;8.156;2022-10-16T09:13:43;16.30;99.90
10263;DHT22;5177;50.068;8.156;2022-10-16T09:18:58;16.30;99.90
10263;DHT22;5177;50.068;8.156;2022-10-16T09:21:27;16.20;99.90
10263;DHT22;5177;50.068;8.156;2022-10-16T09:23:54;16.20;99.90
10263;DHT22;5177;50.068;8.156;2022-10-16T09:26:22;16.20;99.90
10263;DHT22;5177;50.068;8.156;2022-10-16T09:28:47;16.20;99.90
10263;DHT22;5177;50.068;8.156;2022-10-16T09:31:17;16.20;99.90
10263;DHT22;5177;50.068;8.156;2022-10-16T09:33:43;16.30;99.90
10263;DHT22;5177;50.068;8.156;2022-10-16T09:36:10;16.30;99.90
10263;DHT22;5177;50.068;8.156;2022-10-16T09:38:36;16.40;99.90
10263;DHT22;5177;50.068;8.156;2022-10-16T09:41:02;16.30;99.90
10263;DHT22;5177;50.068;8.156;2022-10-16T09:46:01;16.30;99.90
10263;DHT22;5177;50.068;8.156;2022-10-16T09:48:28;16.30;99.90
10263;DHT22;5177;50.068;8.156;2022-10-16T09:50:56;16.30;99.90
10263;DHT22;5177;50.068;8.156;2022-10-16T09:53:22;16.50;99.90
10263;DHT22;5177;50.068;8.156;2022-10-16T09:55:52;16.50;99.90
10263;DHT22;5177;50.068;8.156;2022-10-16T09:58:17;16.60;99.90
10263;DHT22;5177;50.068;8.156;2022-10-16T10:00:50;16.70;99.90
10263;DHT22;5177;50.068;8.156;2022-10-16T10:03:23;16.80;99.90
10263;DHT22;5177;50.068;8.156;2022-10-16T10:05:56;16.80;99.90
10263;DHT22;5177;50.068;8.156;2022-10-16T10:08:21;17.00;99.90
10263;DHT22;5177;50.068;8.156;2022-10-16T10:10:47;17.10;99.90
10263;DHT22;5177;50.068;8.156;2022-10-16T10:13:19;17.20;99.90
10263;DHT22;5177;50.068;8.156;2022-10-16T10:15:45;17.30;99.90
10263;DHT22;5177;50.068;8.156;2022-10-16T10:18:15;17.40;99.90
10263;DHT22;5177;50.068;8.156;2022-10-16T10:20:41;17.40;99.90
10263;DHT22;5177;50.068;8.156;2022-10-16T10:23:20;17.40;99.90
10263;DHT22;5177;50.068;8.156;2022-10-16T10:28:51;17.50;99.90
10263;DHT22;5177;50.068;8.156;2022-10-16T10:31:21;17.50;99.90
10263;DHT22;5177;50.068;8.156;2022-10-16T10:33:54;17.50;99.90
10263;DHT22;5177;50.068;8.156;2022-10-16T10:36:39;17.40;99.90
10263;DHT22;5177;50.068;8.156;2022-10-16T10:41:41;17.50;99.90
10263;DHT22;5177;50.068;8.156;2022-10-16T10:44:57;17.60;99.90
10263;DHT22;5177;50.068;8.156;2022-10-16T10:47:01;17.80;99.90
10263;DHT22;5177;50.068;8.156;2022-10-16T10:57:09;18.30;99.90
10263;DHT22;5177;50.068;8.156;2022-10-16T10:59:46;18.60;99.90
10263;DHT22;5177;50.068;8.156;2022-10-16T11:02:18;18.70;99.90
10263;DHT22;5177;50.068;8.156;2022-10-16T11:04:56;18.90;99.90
10263;DHT22;5177;50.068;8.156;2022-10-16T11:07:30;19.00;99.90
10263;DHT22;5177;50.068;8.156;2022-10-16T11:10:14;19.00;99.90
10263;DHT22;5177;50.068;8.156;2022-10-16T11:12:47;19.00;99.90
10263;DHT22;5177;50.068;8.156;2022-10-16T11:15:16;19.00;99.90
10263;DHT22;5177;50.068;8.156;2022-10-16T11:20:28;19.00;99.90
10263;DHT22;5177;50.068;8.156;2022-10-16T11:23:11;19.10;99.90
10263;DHT22;5177;50.068;8.156;2022-10-16T11:25:40;19.40;99.90
10263;DHT22;5177;50.068;8.156;2022-10-16T11:28:27;19.40;99.90
10263;DHT22;5177;50.068;8.156;2022-10-16T11:30:55;19.30;99.90
10263;DHT22;5177;50.068;8.156;2022-10-16T11:33:27;19.40;99.90
10263;DHT22;5177;50.068;8.156;2022-10-16T11:43:42;19.60;99.90
10263;DHT22;5177;50.068;8.156;2022-10-16T11:46:10;19.90;99.90
10263;DHT22;5177;50.068;8.156;2022-10-16T11:48:46;20.20;99.90
10263;DHT22;5177;50.068;8.156;2022-10-16T11:51:16;20.30;99.90
10263;DHT22;5177;50.068;8.156;2022-10-16T11:53:51;20.70;99.90
10263;DHT22;5177;50.068;8.156;2022-10-16T11:56:19;20.70;99.90
10263;DHT22;5177;50.068;8.156;2022-10-16T11:59:01;20.90;99.90
10263;DHT22;5177;50.068;8.156;2022-10-16T12:01:29;20.70;99.90
10263;DHT22;5177;50.068;8.156;2022-10-16T12:04:04;20.60;99.90
10263;DHT22;5177;50.068;8.156;2022-10-16T12:06:40;20.70;99.90
10263;DHT22;5177;50.068;8.156;2022-10-16T12:09:10;20.40;99.90
10263;DHT22;5177;50.068;8.156;2022-10-16T12:11:39;20.30;99.90
10263;DHT22;5177;50.068;8.156;2022-10-16T12:16:38;20.30;99.90
10263;DHT22;5177;50.068;8.156;2022-10-16T12:21:35;20.40;99.90
10263;DHT22;5177;50.068;8.156;2022-10-16T12:24:01;20.40;99.90
10263;DHT22;5177;50.068;8.156;2022-10-16T12:26:29;20.30;99.90
10263;DHT22;5177;50.068;8.156;2022-10-16T12:28:57;20.20;99.90
10263;DHT22;5177;50.068;8.156;2022-10-16T12:31:39;20.00;99.90
10263;DHT22;5177;50.068;8.156;2022-10-16T12:34:14;19.90;99.90
10263;DHT22;5177;50.068;8.156;2022-10-16T12:36:46;19.80;99.90
10263;DHT22;5177;50.068;8.156;2022-10-16T12:39:20;19.70;99.90
10263;DHT22;5177;50.068;8.156;2022-10-16T12:41:46;19.70;99.90
10263;DHT22;5177;50.068;8.156;2022-10-16T12:44:24;19.80;99.90
10263;DHT22;5177;50.068;8.156;2022-10-16T12:46:51;19.80;99.90
10263;DHT22;5177;50.068;8.156;2022-10-16T12:49:22;19.90;99.90
10263;DHT22;5177;50.068;8.156;2022-10-16T12:51:49;19.80;99.90
10263;DHT22;5177;50.068;8.156;2022-10-16T12:54:16;19.80;99.90
10263;DHT22;5177;50.068;8.156;2022-10-16T13:20:20;20.50;99.90
10263;DHT22;5177;50.068;8.156;2022-10-16T13:28:16;20.60;99.90
10263;DHT22;5177;50.068;8.156;2022-10-16T13:30:44;20.50;99.90
10263;DHT22;5177;50.068;8.156;2022-10-16T13:33:14;20.50;99.90
10263;DHT22;5177;50.068;8.156;2022-10-16T13:35:48;20.50;99.90
10263;DHT22;5177;50.068;8.156;2022-10-16T13:38:16;20.60;99.90
10263;DHT22;5177;50.068;8.156;2022-10-16T13:43:25;20.50;99.90
10263;DHT22;5177;50.068;8.156;2022-10-16T13:45:57;20.50;99.90
10263;DHT22;5177;50.068;8.156;2022-10-16T13:48:23;20.40;99.90
10263;DHT22;5177;50.068;8.156;2022-10-16T13:51:34;20.40;99.90
10263;DHT22;5177;50.068;8.156;2022-10-16T13:53:34;20.20;99.90
10263;DHT22;5177;50.068;8.156;2022-10-16T13:56:02;20.10;99.90
10263;DHT22;5177;50.068;8.156;2022-10-16T13:58:28;20.00;99.90
10263;DHT22;5177;50.068;8.156;2022-10-16T14:01:01;20.00;99.90
10263;DHT22;5177;50.068;8.156;2022-10-16T14:03:27;19.90;99.90
10263;DHT22;5177;50.068;8.156;2022-10-16T14:05:55;19.90;99.90
10263;DHT22;5177;50.068;8.156;2022-10-16T14:08:22;20.00;99.90
10263;DHT22;5177;50.068;8.156;2022-10-16T14:10:50;20.00;99.90
10263;DHT22;5177;50.068;8.156;2022-10-16T14:13:20;20.00;99.90
10263;DHT22;5177;50.068;8.156;2022-10-16T14:15:49;20.00;99.90
10263;DHT22;5177;50.068;8.156;2022-10-16T14:18:19;20.00;99.90
10263;DHT22;5177;50.068;8.156;2022-10-16T14:20:45;20.10;99.90
10263;DHT22;5177;50.068;8.156;2022-10-16T14:23:21;20.10;99.90
10263;DHT22;5177;50.068;8.156;2022-10-16T14:25:47;20.20;99.90
10263;DHT22;5177;50.068;8.156;2022-10-16T14:30:48;20.40;99.90
10263;DHT22;5177;50.068;8.156;2022-10-16T14:35:46;20.40;99.90
10263;DHT22;5177;50.068;8.156;2022-10-16T14:38:18;20.30;99.90
10263;DHT22;5177;50.068;8.156;2022-10-16T14:40:47;20.30;99.90
10263;DHT22;5177;50.068;8.156;2022-10-16T14:43:24;20.20;99.90
10263;DHT22;5177;50.068;8.156;2022-10-16T14:45:53;20.10;99.90
10263;DHT22;5177;50.068;8.156;2022-10-16T14:48:19;20.10;99.90
10263;DHT22;5177;50.068;8.156;2022-10-16T14:50:46;20.10;99.90
10263;DHT22;5177;50.068;8.156;2022-10-16T14:53:12;20.10;99.90
10263;DHT22;5177;50.068;8.156;2022-10-16T14:55:38;20.20;99.90
10263;DHT22;5177;50.068;8.156;2022-10-16T14:58:04;20.20;99.90
10263;DHT22;5177;50.068;8.156;2022-10-16T15:00:30;20.20;99.90
10263;DHT22;5177;50.068;8.156;2022-10-16T15:02:55;20.30;99.90
10263;DHT22;5177;50.068;8.156;2022-10-16T15:05:25;20.30;99.90
10263;DHT22;5177;50.068;8.156;2022-10-16T15:07:52;20.20;99.90
10263;DHT22;5177;50.068;8.156;2022-10-16T15:10:18;20.10;99.90
10263;DHT22;5177;50.068;8.156;2022-10-16T15:12:44;20.20;99.90
10263;DHT22;5177;50.068;8.156;2022-10-16T15:15:55;20.00;99.90
10263;DHT22;5177;50.068;8.156;2022-10-16T15:17:56;19.90;99.90
10263;DHT22;5177;50.068;8.156;2022-10-16T15:20:23;19.90;99.90
10263;DHT22;5177;50.068;8.156;2022-10-16T15:22:48;19.90;99.90
10263;DHT22;5177;50.068;8.156;2022-10-16T15:27:42;19.80;99.90
10263;DHT22;5177;50.068;8.156;2022-10-16T15:30:08;19.70;99.90
10263;DHT22;5177;50.068;8.156;2022-10-16T15:32:33;19.70;99.90
10263;DHT22;5177;50.068;8.156;2022-10-16T15:34:59;19.60;99.90
10263;DHT22;5177;50.068;8.156;2022-10-16T15:37:24;19.60;99.90
10263;DHT22;5177;50.068;8.156;2022-10-16T15:39:50;19.60;99.90
10263;DHT22;5177;50.068;8.156;2022-10-16T15:42:15;19.60;99.90
10263;DHT22;5177;50.068;8.156;2022-10-16T15:44:41;19.50;99.90
10263;DHT22;5177;50.068;8.156;2022-10-16T15:47:07;19.40;99.90
10263;DHT22;5177;50.068;8.156;2022-10-16T15:49:33;19.40;99.90
10263;DHT22;5177;50.068;8.156;2022-10-16T15:51:58;19.30;99.90
10263;DHT22;5177;50.068;8.156;2022-10-16T15:54:24;19.30;99.90
10263;DHT22;5177;50.068;8.156;2022-10-16T15:56:50;19.30;99.90
10263;DHT22;5177;50.068;8.156;2022-10-16T15:59:15;19.30;99.90
10263;DHT22;5177;50.068;8.156;2022-10-16T16:01:41;19.20;99.90
10263;DHT22;5177;50.068;8.156;2022-10-16T16:04:07;19.20;99.90
10263;DHT22;5177;50.068;8.156;2022-10-16T16:06:32;19.20;99.90
10263;DHT22;5177;50.068;8.156;2022-10-16T16:08:58;19.10;99.90
10263;DHT22;5177;50.068;8.156;2022-10-16T16:11:24;19.10;99.90
10263;DHT22;5177;50.068;8.156;2022-10-16T16:13:50;19.10;99.90
10263;DHT22;5177;50.068;8.156;2022-10-16T16:16:16;19.00;99.90
10263;DHT22;5177;50.068;8.156;2022-10-16T16:18:42;19.00;99.90
10263;DHT22;5177;50.068;8.156;2022-10-16T16:21:09;18.90;99.90
10263;DHT22;5177;50.068;8.156;2022-10-16T16:23:35;18.90;99.90
10263;DHT22;5177;50.068;8.156;2022-10-16T16:26:11;18.80;99.90
10263;DHT22;5177;50.068;8.156;2022-10-16T16:28:38;18.80;99.90
10263;DHT22;5177;50.068;8.156;2022-10-16T16:31:04;18.70;99.90
10263;DHT22;5177;50.068;8.156;2022-10-16T16:33:29;18.70;99.90
10263;DHT22;5177;50.068;8.156;2022-10-16T16:35:57;18.60;99.90
10263;DHT22;5177;50.068;8.156;2022-10-16T16:38:23;18.60;99.90
10263;DHT22;5177;50.068;8.156;2022-10-16T16:40:48;18.50;99.90
10263;DHT22;5177;50.068;8.156;2022-10-16T16:43:13;18.50;99.90
10263;DHT22;5177;50.068;8.156;2022-10-16T16:45:40;18.50;99.90
10263;DHT22;5177;50.068;8.156;2022-10-16T16:48:05;18.50;99.90
10263;DHT22;5177;50.068;8.156;2022-10-16T16:50:35;18.40;99.90
10263;DHT22;5177;50.068;8.156;2022-10-16T16:53:01;18.40;99.90
10263;DHT22;5177;50.068;8.156;2022-10-16T16:55:26;18.40;99.90
10263;DHT22;5177;50.068;8.156;2022-10-16T16:57:52;18.30;99.90
10263;DHT22;5177;50.068;8.156;2022-10-16T17:00:17;18.30;99.90
10263;DHT22;5177;50.068;8.156;2022-10-16T17:02:43;18.30;99.90
10263;DHT22;5177;50.068;8.156;2022-10-16T17:05:10;18.20;99.90
10263;DHT22;5177;50.068;8.156;2022-10-16T17:07:35;18.20;99.90
10263;DHT22;5177;50.068;8.156;2022-10-16T17:10:01;18.20;99.90
10263;DHT22;5177;50.068;8.156;2022-10-16T17:12:28;18.00;99.90
10263;DHT22;5177;50.068;8.156;2022-10-16T17:14:54;18.10;99.90
10263;DHT22;5177;50.068;8.156;2022-10-16T17:17:19;18.10;99.90
10263;DHT22;5177;50.068;8.156;2022-10-16T17:19:45;18.00;99.90
10263;DHT22;5177;50.068;8.156;2022-10-16T17:22:10;18.00;99.90
10263;DHT22;5177;50.068;8.156;2022-10-16T17:24:36;18.00;99.90
10263;DHT22;5177;50.068;8.156;2022-10-16T17:27:01;17.90;99.90
10263;DHT22;5177;50.068;8.156;2022-10-16T17:29:27;17.90;99.90
10263;DHT22;5177;50.068;8.156;2022-10-16T17:31:52;17.80;99.90